createdAt,value
2017-12-26T00:02:07.552Z,8.18
2017-12-26T00:04:35.053Z,7.18
2017-12-26T00:07:02.593Z,9.75
2017-12-26T00:09:30.126Z,10.57
2017-12-26T00:11:57.641Z,10.15
2017-12-26T00:14:26.192Z,5.87
2017-12-26T00:16:53.701Z,6.35
2017-12-26T00:19:21.200Z,8.55
2017-12-26T00:21:48.754Z,10.50
2017-12-26T00:24:16.506Z,5.35
2017-12-26T00:26:44.011Z,8.57
2017-12-26T00:29:11.857Z,8.65
2017-12-26T00:31:39.387Z,6.28
2017-12-26T00:34:06.884Z,7.28
2017-12-26T00:36:34.709Z,5.30
2017-12-26T00:39:02.218Z,5.12
2017-12-26T00:41:29.723Z,4.45
2017-12-26T00:43:57.248Z,6.20
2017-12-26T00:46:24.744Z,6.60
2017-12-26T00:48:52.246Z,6.47
2017-12-26T00:51:19.777Z,5.90
2017-12-26T00:53:47.276Z,7.43
2017-12-26T00:56:14.773Z,7.50
2017-12-26T00:58:42.638Z,6.50
2017-12-26T01:01:10.150Z,5.97
2017-12-26T01:03:37.656Z,5.10
2017-12-26T01:06:05.296Z,5.40
2017-12-26T01:08:32.789Z,6.07
2017-12-26T01:11:00.290Z,5.60
2017-12-26T01:13:27.840Z,8.80
2017-12-26T01:15:55.345Z,13.02
2017-12-26T01:18:22.908Z,6.15
2017-12-26T01:20:50.453Z,6.03
2017-12-26T01:23:17.962Z,6.85
2017-12-26T01:25:45.465Z,5.85
2017-12-26T01:28:13.018Z,7.32
2017-12-26T01:30:40.523Z,4.07
2017-12-26T01:33:08.054Z,7.00
2017-12-26T01:35:35.921Z,7.20
2017-12-26T01:38:03.421Z,3.95
2017-12-26T01:40:30.921Z,8.25
2017-12-26T01:42:58.496Z,6.82
2017-12-26T01:45:26.055Z,7.22
2017-12-26T01:47:53.556Z,5.43
2017-12-26T01:50:21.109Z,9.07
2017-12-26T01:52:48.608Z,7.87
2017-12-26T01:55:16.164Z,6.50
2017-12-26T01:57:43.675Z,14.38
2017-12-26T02:00:11.205Z,8.77
2017-12-26T02:02:38.709Z,4.53
2017-12-26T02:05:06.391Z,5.50
2017-12-26T02:07:33.889Z,6.22
2017-12-26T02:10:01.384Z,8.07
2017-12-26T02:12:28.913Z,6.18
2017-12-26T02:14:56.409Z,5.50
2017-12-26T02:17:23.909Z,5.28
2017-12-26T02:19:51.456Z,5.35
2017-12-26T02:22:18.962Z,9.05
2017-12-26T02:24:46.465Z,9.10
2017-12-26T02:27:14.120Z,5.50
2017-12-26T02:29:41.626Z,7.65
2017-12-26T02:32:09.124Z,8.35
2017-12-26T02:34:36.665Z,5.80
2017-12-26T02:37:04.166Z,8.90
2017-12-26T02:39:31.675Z,8.25
2017-12-26T02:41:59.217Z,4.12
2017-12-26T02:44:26.754Z,7.40
2017-12-26T02:46:54.253Z,5.22
2017-12-26T02:49:21.792Z,6.40
2017-12-26T02:51:49.297Z,7.43
2017-12-26T02:54:16.798Z,7.18
2017-12-26T02:56:44.342Z,10.48
2017-12-26T02:59:11.840Z,6.70
2017-12-26T03:01:39.345Z,5.40
2017-12-26T03:04:07.227Z,6.47
2017-12-26T03:06:34.733Z,6.78
2017-12-26T03:09:02.238Z,7.72
2017-12-26T03:11:30.417Z,7.55
2017-12-26T03:13:57.916Z,6.12
2017-12-26T03:16:25.418Z,7.87
2017-12-26T03:18:53.092Z,6.50
2017-12-26T03:21:20.593Z,9.10
2017-12-26T03:23:48.094Z,12.20
2017-12-26T03:26:15.667Z,7.00
2017-12-26T03:28:43.168Z,10.45
2017-12-26T03:31:10.683Z,8.70
2017-12-26T03:33:38.424Z,6.72
2017-12-26T03:36:05.922Z,8.10
2017-12-26T03:38:33.420Z,8.77
2017-12-26T03:41:01.124Z,9.63
2017-12-26T03:43:28.626Z,6.45
2017-12-26T03:45:56.134Z,7.20
2017-12-26T03:48:23.711Z,8.98
2017-12-26T03:50:51.221Z,12.35
2017-12-26T03:53:18.716Z,5.60
2017-12-26T03:55:46.248Z,10.32
2017-12-26T03:58:13.754Z,5.78
2017-12-26T04:00:41.297Z,6.93
2017-12-26T04:03:08.964Z,7.57
2017-12-26T04:05:36.465Z,9.93
2017-12-26T04:08:03.993Z,7.72
2017-12-26T04:10:31.549Z,7.40
2017-12-26T04:12:59.085Z,8.48
2017-12-26T04:15:26.593Z,6.93
2017-12-26T04:17:54.477Z,8.40
2017-12-26T04:20:22.465Z,8.35
2017-12-26T04:22:49.969Z,10.70
2017-12-26T04:25:17.617Z,7.68
2017-12-26T04:27:45.137Z,8.27
2017-12-26T04:30:12.637Z,8.02
2017-12-26T04:32:40.170Z,8.35
2017-12-26T04:35:07.673Z,8.55
2017-12-26T04:37:35.174Z,9.48
2017-12-26T04:40:02.963Z,6.97
2017-12-26T04:42:30.510Z,7.10
2017-12-26T04:44:58.009Z,6.07
2017-12-26T04:47:25.805Z,4.95
2017-12-26T04:49:53.317Z,7.10
2017-12-26T04:52:20.818Z,4.30
2017-12-26T04:54:48.444Z,6.93
2017-12-26T04:57:15.943Z,4.00
2017-12-26T04:59:43.437Z,5.28
2017-12-26T05:02:10.982Z,4.75
2017-12-26T05:04:38.542Z,7.07
2017-12-26T05:07:06.037Z,3.80
2017-12-26T05:09:33.831Z,6.03
2017-12-26T05:12:01.334Z,8.45
2017-12-26T05:14:29.800Z,4.10
2017-12-26T05:16:57.564Z,3.17
2017-12-26T05:19:25.066Z,4.55
2017-12-26T05:21:52.574Z,6.78
2017-12-26T05:24:20.256Z,4.40
2017-12-26T05:26:47.754Z,6.72
2017-12-26T05:29:15.255Z,6.78
2017-12-26T05:31:42.804Z,8.02
2017-12-26T05:34:10.307Z,6.62
2017-12-26T05:36:37.813Z,5.47
2017-12-26T05:39:05.581Z,4.20
2017-12-26T05:41:33.080Z,4.28
2017-12-26T05:44:00.611Z,3.30
2017-12-26T05:46:28.378Z,5.57
2017-12-26T05:48:55.885Z,4.72
2017-12-26T05:51:23.380Z,5.87
2017-12-26T05:53:51.155Z,4.35
2017-12-26T05:56:18.662Z,6.12
2017-12-26T05:58:46.170Z,6.55
2017-12-26T06:01:13.707Z,5.20
2017-12-26T06:03:41.221Z,6.53
2017-12-26T06:06:08.721Z,8.27
2017-12-26T06:08:36.553Z,6.03
2017-12-26T06:11:04.053Z,12.25
2017-12-26T06:13:31.552Z,4.72
2017-12-26T06:15:59.356Z,5.15
2017-12-26T06:18:26.856Z,5.18
2017-12-26T06:20:55.327Z,6.35
2017-12-26T06:23:22.963Z,4.65
2017-12-26T06:25:50.465Z,5.07
2017-12-26T06:28:17.969Z,8.35
2017-12-26T06:30:45.502Z,5.22
2017-12-26T06:33:13.010Z,6.30
2017-12-26T06:35:40.507Z,6.22
2017-12-26T06:38:08.040Z,5.22
2017-12-26T06:40:35.545Z,7.03
2017-12-26T06:43:03.045Z,6.25
2017-12-26T06:45:30.815Z,5.62
2017-12-26T06:47:58.309Z,6.82
2017-12-26T06:50:25.831Z,8.10
2017-12-26T06:52:53.390Z,6.10
2017-12-26T06:55:20.890Z,8.05
2017-12-26T06:57:48.398Z,10.18
2017-12-26T07:00:16.034Z,7.10
2017-12-26T07:02:43.537Z,6.18
2017-12-26T07:05:11.038Z,8.55
2017-12-26T07:07:38.744Z,8.63
2017-12-26T07:10:06.244Z,7.80
2017-12-26T07:12:33.769Z,8.30
2017-12-26T07:15:01.728Z,7.45
2017-12-26T07:17:29.227Z,9.10
2017-12-26T07:19:56.729Z,4.62
2017-12-26T07:22:24.308Z,10.40
2017-12-26T07:24:51.809Z,6.25
2017-12-26T07:27:19.315Z,6.12
2017-12-26T07:29:46.864Z,8.10
2017-12-26T07:32:14.386Z,11.95
2017-12-26T07:34:41.900Z,10.25
2017-12-26T07:37:09.460Z,5.57
2017-12-26T07:39:36.960Z,8.65
2017-12-26T07:42:04.457Z,7.82
2017-12-26T07:44:31.998Z,9.02
2017-12-26T07:46:59.497Z,8.27
2017-12-26T07:49:26.993Z,7.95
2017-12-26T07:51:54.884Z,15.77
2017-12-26T07:54:22.389Z,12.95
2017-12-26T07:56:49.898Z,9.68
2017-12-26T07:59:17.995Z,14.55
2017-12-26T08:01:45.493Z,7.37
2017-12-26T08:04:12.988Z,7.50
2017-12-26T08:06:40.698Z,8.13
2017-12-26T08:09:08.231Z,7.87
2017-12-26T08:11:35.736Z,9.30
2017-12-26T08:14:03.293Z,5.65
2017-12-26T08:16:30.805Z,8.73
2017-12-26T08:18:58.313Z,6.82
2017-12-26T08:21:25.861Z,7.25
2017-12-26T08:23:53.407Z,8.27
2017-12-26T08:26:20.940Z,6.10
2017-12-26T08:28:48.581Z,8.38
2017-12-26T08:31:16.085Z,6.32
2017-12-26T08:33:43.617Z,6.95
2017-12-26T08:36:11.355Z,7.18
2017-12-26T08:38:38.857Z,7.12
2017-12-26T08:41:06.397Z,10.00
2017-12-26T08:43:34.263Z,6.80
2017-12-26T08:46:01.770Z,6.90
2017-12-26T08:48:29.270Z,7.07
2017-12-26T08:50:56.952Z,12.18
2017-12-26T08:53:24.454Z,7.85
2017-12-26T08:55:51.958Z,9.20
2017-12-26T08:58:19.494Z,9.30
2017-12-26T09:00:47.002Z,11.82
2017-12-26T09:03:14.501Z,8.52
2017-12-26T09:05:42.164Z,11.23
2017-12-26T09:08:09.665Z,6.30
2017-12-26T09:10:37.170Z,8.13
2017-12-26T09:13:04.869Z,9.63
2017-12-26T09:15:32.375Z,7.45
2017-12-26T09:17:59.916Z,9.95
2017-12-26T09:20:27.452Z,7.80
2017-12-26T09:22:54.948Z,6.97
2017-12-26T09:25:22.454Z,9.45
2017-12-26T09:27:49.998Z,8.10
2017-12-26T09:30:17.506Z,7.55
2017-12-26T09:32:45.022Z,4.97
2017-12-26T09:35:12.879Z,5.30
2017-12-26T09:37:40.385Z,7.57
2017-12-26T09:40:07.915Z,9.60
2017-12-26T09:42:35.445Z,5.20
2017-12-26T09:45:02.944Z,7.80
2017-12-26T09:47:30.490Z,8.27
2017-12-26T09:49:58.273Z,8.43
2017-12-26T09:52:26.669Z,6.83
2017-12-26T09:54:54.169Z,5.13
2017-12-26T09:57:22.979Z,6.83
2017-12-26T09:59:50.487Z,5.90
2017-12-26T10:02:17.989Z,6.80
2017-12-26T10:04:45.522Z,9.07
2017-12-26T10:07:13.021Z,8.70
2017-12-26T10:09:40.672Z,4.33
2017-12-26T10:12:08.260Z,7.33
2017-12-26T10:14:35.790Z,7.33
2017-12-26T10:17:03.296Z,3.80
2017-12-26T10:19:30.831Z,8.00
2017-12-26T10:21:58.363Z,7.90
2017-12-26T10:24:25.865Z,12.13
2017-12-26T10:26:53.688Z,8.60
2017-12-26T10:29:21.198Z,5.83
2017-12-26T10:31:48.715Z,5.10
2017-12-26T10:34:16.399Z,4.13
2017-12-26T10:36:43.906Z,4.40
2017-12-26T10:39:11.410Z,5.17
2017-12-26T10:41:39.167Z,2.63
2017-12-26T10:44:06.695Z,4.00
2017-12-26T10:46:34.218Z,3.27
2017-12-26T10:49:01.755Z,2.20
2017-12-26T10:51:29.266Z,2.43
2017-12-26T10:53:56.784Z,1.40
2017-12-26T10:56:24.327Z,2.63
2017-12-26T10:58:51.844Z,4.10
2017-12-26T11:01:19.411Z,1.70
2017-12-26T11:03:46.962Z,1.20
2017-12-26T11:06:14.487Z,3.70
2017-12-26T11:08:42.009Z,1.33
2017-12-26T11:11:09.775Z,2.27
2017-12-26T11:13:37.391Z,1.10
2017-12-26T11:16:04.972Z,2.03
2017-12-26T11:18:33.146Z,1.93
2017-12-26T11:21:00.704Z,2.93
2017-12-26T11:23:29.183Z,1.30
2017-12-26T11:25:56.866Z,1.10
2017-12-26T11:28:24.403Z,1.87
2017-12-26T11:30:51.963Z,1.30
2017-12-26T11:33:19.911Z,1.27
2017-12-26T11:35:47.426Z,1.12
2017-12-26T11:38:14.947Z,1.42
2017-12-26T11:40:42.690Z,1.52
2017-12-26T11:43:10.215Z,2.12
2017-12-26T11:45:37.734Z,1.20
2017-12-26T11:48:05.475Z,1.42
2017-12-26T11:50:32.995Z,2.17
2017-12-26T11:53:00.510Z,1.30
2017-12-26T11:55:28.062Z,1.80
2017-12-26T11:57:55.586Z,5.40
2017-12-26T12:00:23.103Z,0.90
2017-12-26T12:02:50.886Z,2.00
2017-12-26T12:05:18.411Z,1.05
2017-12-26T12:07:45.962Z,5.53
2017-12-26T12:10:13.706Z,0.90
2017-12-26T12:12:41.223Z,1.00
2017-12-26T12:15:08.740Z,1.20
2017-12-26T12:17:36.311Z,1.35
2017-12-26T12:20:03.859Z,1.70
2017-12-26T12:22:31.441Z,0.90
2017-12-26T12:24:59.388Z,1.20
2017-12-26T12:27:26.898Z,3.92
2017-12-26T12:29:54.418Z,0.90
2017-12-26T12:32:22.274Z,5.12
2017-12-26T12:34:49.828Z,1.45
2017-12-26T12:37:17.338Z,1.00
2017-12-26T12:39:45.227Z,1.15
2017-12-26T12:42:13.223Z,1.12
2017-12-26T12:44:40.778Z,1.30
2017-12-26T12:47:08.525Z,1.15
2017-12-26T12:49:36.039Z,1.00
2017-12-26T12:52:03.557Z,2.05
2017-12-26T12:54:31.141Z,1.48
2017-12-26T12:56:58.668Z,1.25
2017-12-26T12:59:26.186Z,0.88
2017-12-26T13:01:53.899Z,1.60
2017-12-26T13:04:21.412Z,2.85
2017-12-26T13:06:48.931Z,4.47
2017-12-26T13:09:16.659Z,1.35
2017-12-26T13:11:44.179Z,1.67
2017-12-26T13:14:11.694Z,1.52
2017-12-26T13:16:39.259Z,3.47
2017-12-26T13:19:06.775Z,1.20
2017-12-26T13:21:34.291Z,1.17
2017-12-26T13:24:01.863Z,1.65
2017-12-26T13:26:29.384Z,2.00
2017-12-26T13:28:56.946Z,1.25
2017-12-26T13:31:24.490Z,1.08
2017-12-26T13:33:52.063Z,2.55
2017-12-26T13:36:19.622Z,1.20
2017-12-26T13:38:47.172Z,1.27
2017-12-26T13:41:14.847Z,1.23
2017-12-26T13:43:42.355Z,1.25
2017-12-26T13:46:09.985Z,1.40
2017-12-26T13:48:37.520Z,1.00
2017-12-26T13:51:05.018Z,2.17
2017-12-26T13:53:32.582Z,1.10
2017-12-26T13:56:00.098Z,1.25
2017-12-26T13:58:27.653Z,2.90
2017-12-26T14:00:55.519Z,1.80
2017-12-26T14:03:23.097Z,1.48
2017-12-26T14:05:50.601Z,1.10
2017-12-26T14:08:18.175Z,1.48
2017-12-26T14:10:45.681Z,1.00
2017-12-26T14:13:13.194Z,1.00
2017-12-26T14:15:40.874Z,10.15
2017-12-26T14:18:08.386Z,1.83
2017-12-26T14:20:36.066Z,0.90
2017-12-26T14:23:03.605Z,0.90
2017-12-26T14:25:31.113Z,1.10
2017-12-26T14:27:58.669Z,1.30
2017-12-26T14:30:26.409Z,2.28
2017-12-26T14:32:53.913Z,2.70
2017-12-26T14:35:21.435Z,1.52
2017-12-26T14:37:48.968Z,1.75
2017-12-26T14:40:16.478Z,1.73
2017-12-26T14:42:43.987Z,1.08
2017-12-26T14:45:11.769Z,1.55
2017-12-26T14:47:39.274Z,1.20
2017-12-26T14:50:06.809Z,1.10
2017-12-26T14:52:34.377Z,2.30
2017-12-26T14:55:01.876Z,1.60
2017-12-26T14:57:29.480Z,1.12
2017-12-26T14:59:57.118Z,0.98
2017-12-26T15:02:24.643Z,2.50
2017-12-26T15:04:52.189Z,1.40
2017-12-26T15:07:20.124Z,2.22
2017-12-26T15:09:47.626Z,1.75
2017-12-26T15:12:15.153Z,1.73
2017-12-26T15:14:42.689Z,1.40
2017-12-26T15:17:10.206Z,1.00
2017-12-26T15:19:37.713Z,1.02
2017-12-26T15:22:05.350Z,0.98
2017-12-26T15:24:32.853Z,1.30
2017-12-26T15:27:00.368Z,1.33
2017-12-26T15:29:28.129Z,2.37
2017-12-26T15:31:55.629Z,1.30
2017-12-26T15:34:23.176Z,1.77
2017-12-26T15:36:50.716Z,1.77
2017-12-26T15:39:18.215Z,1.52
2017-12-26T15:41:45.708Z,1.75
2017-12-26T15:44:13.386Z,1.20
2017-12-26T15:46:40.884Z,2.72
2017-12-26T15:49:08.386Z,1.60
2017-12-26T15:51:36.025Z,1.15
2017-12-26T15:54:03.534Z,1.42
2017-12-26T15:56:31.043Z,2.95
2017-12-26T15:58:58.585Z,1.70
2017-12-26T16:01:26.118Z,3.15
2017-12-26T16:03:53.694Z,1.77
2017-12-26T16:06:21.253Z,4.40
2017-12-26T16:08:48.749Z,3.60
2017-12-26T16:11:16.338Z,3.42
2017-12-26T16:13:44.320Z,3.15
2017-12-26T16:16:11.822Z,1.30
2017-12-26T16:18:40.260Z,1.25
2017-12-26T16:21:08.139Z,1.42
2017-12-26T16:23:35.805Z,9.98
2017-12-26T16:26:03.549Z,1.20
2017-12-26T16:28:31.313Z,1.90
2017-12-26T16:30:58.833Z,1.67
2017-12-26T16:33:26.504Z,3.75
2017-12-26T16:35:54.502Z,3.20
2017-12-26T16:38:22.054Z,2.15
2017-12-26T16:40:50.313Z,2.20
2017-12-26T16:43:18.509Z,2.62
2017-12-26T16:45:46.377Z,5.32
2017-12-26T16:48:14.150Z,4.07
2017-12-26T16:50:41.928Z,1.90
2017-12-26T16:53:09.668Z,1.42
2017-12-26T16:55:37.232Z,4.50
2017-12-26T16:58:04.968Z,2.75
2017-12-26T17:00:32.651Z,2.70
2017-12-26T17:03:00.521Z,1.75
2017-12-26T17:05:28.282Z,2.87
2017-12-26T17:07:56.148Z,1.85
2017-12-26T17:10:24.110Z,1.92
2017-12-26T17:12:51.691Z,2.87
2017-12-26T17:15:19.274Z,2.85
2017-12-26T17:17:46.793Z,1.65
2017-12-26T17:20:15.093Z,2.25
2017-12-26T17:22:42.661Z,3.67
2017-12-26T17:25:10.222Z,3.83
2017-12-26T17:27:37.910Z,1.60
2017-12-26T17:30:05.417Z,6.00
2017-12-26T17:32:32.925Z,1.98
2017-12-26T17:35:00.505Z,2.55
2017-12-26T17:37:28.005Z,2.35
2017-12-26T17:39:55.506Z,2.25
2017-12-26T17:42:23.978Z,3.67
2017-12-26T17:44:51.551Z,4.90
2017-12-26T17:47:19.235Z,1.90
2017-12-26T17:49:46.914Z,3.25
2017-12-26T17:52:14.421Z,2.22
2017-12-26T17:54:42.024Z,2.33
2017-12-26T17:57:09.600Z,1.80
2017-12-26T17:59:37.347Z,5.22
2017-12-26T18:02:05.518Z,2.15
2017-12-26T18:04:33.597Z,3.78
2017-12-26T18:07:01.251Z,1.10
2017-12-26T18:09:28.810Z,5.07
2017-12-26T18:11:56.471Z,5.03
2017-12-26T18:14:24.235Z,1.80
2017-12-26T18:16:51.999Z,3.08
2017-12-26T18:19:19.971Z,8.32
2017-12-26T18:21:48.104Z,3.45
2017-12-26T18:24:15.636Z,4.62
2017-12-26T18:26:43.557Z,1.83
2017-12-26T18:29:11.173Z,2.35
2017-12-26T18:31:38.761Z,5.43
2017-12-26T18:34:07.169Z,2.45
2017-12-26T18:36:34.714Z,4.43
2017-12-26T18:39:02.376Z,3.75
2017-12-26T18:41:30.353Z,2.80
2017-12-26T18:43:58.117Z,3.87
2017-12-26T18:46:25.677Z,2.83
2017-12-26T18:48:53.577Z,4.05
2017-12-26T18:51:21.168Z,5.93
2017-12-26T18:53:48.873Z,5.53
2017-12-26T18:56:16.527Z,3.40
2017-12-26T18:58:44.291Z,7.90
2017-12-26T19:01:11.850Z,4.25
2017-12-26T19:03:39.597Z,5.78
2017-12-26T19:06:07.105Z,3.47
2017-12-26T19:08:34.620Z,3.87
2017-12-26T19:11:02.473Z,6.43
2017-12-26T19:13:29.998Z,3.58
2017-12-26T19:15:57.519Z,5.75
2017-12-26T19:18:26.506Z,3.85
2017-12-26T19:20:54.041Z,4.90
2017-12-26T19:23:21.591Z,3.40
2017-12-26T19:25:49.283Z,4.22
2017-12-26T19:28:16.944Z,8.77
2017-12-26T19:30:44.564Z,3.55
2017-12-26T19:33:12.100Z,4.35
2017-12-26T19:35:39.601Z,5.75
2017-12-26T19:38:07.123Z,5.25
2017-12-26T19:40:34.758Z,4.30
2017-12-26T19:43:02.310Z,3.05
2017-12-26T19:45:29.858Z,4.22
2017-12-26T19:47:57.593Z,8.05
2017-12-26T19:50:25.282Z,2.72
2017-12-26T19:52:52.845Z,5.80
2017-12-26T19:55:21.016Z,5.35
2017-12-26T19:57:48.645Z,6.50
2017-12-26T20:00:16.319Z,4.85
2017-12-26T20:02:44.363Z,5.20
2017-12-26T20:05:12.177Z,6.75
2017-12-26T20:07:39.836Z,5.85
2017-12-26T20:10:07.449Z,5.07
2017-12-26T20:12:35.056Z,5.12
2017-12-26T20:15:02.792Z,5.05
2017-12-26T20:17:30.788Z,4.97
2017-12-26T20:19:58.349Z,5.57
2017-12-26T20:22:26.523Z,5.05
2017-12-26T20:24:54.282Z,4.12
2017-12-26T20:27:21.790Z,2.87
2017-12-26T20:29:55.022Z,5.62
2017-12-26T20:32:22.689Z,4.05
2017-12-26T20:34:50.359Z,7.43
2017-12-26T20:37:18.326Z,5.72
2017-12-26T20:39:45.884Z,2.87
2017-12-26T20:42:13.521Z,8.05
2017-12-26T20:44:41.134Z,6.72
2017-12-26T20:47:08.766Z,11.50
2017-12-26T20:49:36.633Z,4.97
2017-12-26T20:52:04.805Z,4.43
2017-12-26T20:54:32.467Z,5.20
2017-12-26T20:57:00.053Z,5.18
2017-12-26T20:59:27.673Z,3.22
2017-12-26T21:01:55.451Z,4.35
2017-12-26T21:04:23.320Z,4.20
2017-12-26T21:06:51.185Z,5.65
2017-12-26T21:09:18.721Z,6.37
2017-12-26T21:11:46.406Z,5.50
2017-12-26T21:14:14.264Z,7.03
2017-12-26T21:16:41.933Z,4.35
2017-12-26T21:19:09.496Z,8.10
2017-12-26T21:21:37.869Z,5.70
2017-12-26T21:24:05.527Z,6.18
2017-12-26T21:26:33.090Z,5.20
2017-12-26T21:29:00.905Z,5.50
2017-12-26T21:31:28.514Z,5.07
2017-12-26T21:33:56.238Z,3.60
2017-12-26T21:36:23.980Z,3.90
2017-12-26T21:38:52.209Z,5.25
2017-12-26T21:41:19.878Z,4.90
2017-12-26T21:43:47.641Z,6.68
2017-12-26T21:46:15.406Z,3.90
2017-12-26T21:48:43.169Z,3.05
2017-12-26T21:51:11.179Z,5.28
2017-12-26T21:53:38.802Z,8.60
2017-12-26T21:56:06.460Z,6.97
2017-12-26T21:58:34.072Z,4.10
2017-12-26T22:01:01.609Z,5.40
2017-12-26T22:03:29.137Z,6.85
2017-12-26T22:05:56.720Z,6.93
2017-12-26T22:08:24.358Z,4.32
2017-12-26T22:10:51.945Z,4.15
2017-12-26T22:13:19.775Z,8.45
2017-12-26T22:15:48.221Z,6.57
2017-12-26T22:18:16.951Z,5.12
2017-12-26T22:20:44.815Z,5.22
2017-12-26T22:23:12.468Z,6.50
2017-12-26T22:25:40.102Z,5.70
2017-12-26T22:28:08.004Z,8.63
2017-12-26T22:30:35.871Z,5.30
2017-12-26T22:33:03.444Z,5.43
2017-12-26T22:35:31.398Z,7.28
2017-12-26T22:37:59.468Z,4.82
2017-12-26T22:40:27.058Z,5.80
2017-12-26T22:42:54.779Z,9.05
2017-12-26T22:45:22.346Z,3.78
2017-12-26T22:47:49.857Z,8.65
2017-12-26T22:50:17.495Z,6.07
2017-12-26T22:52:45.039Z,13.77
2017-12-26T22:55:12.791Z,7.18
2017-12-26T22:57:40.554Z,5.57
2017-12-26T23:00:08.053Z,10.25
2017-12-26T23:02:35.570Z,6.28
2017-12-26T23:05:03.205Z,6.60
2017-12-26T23:07:30.792Z,9.55
2017-12-26T23:09:58.308Z,9.30
2017-12-26T23:12:26.012Z,3.65
2017-12-26T23:14:59.256Z,3.45
2017-12-26T23:17:32.599Z,5.93
2017-12-26T23:20:05.852Z,6.97
2017-12-26T23:22:33.471Z,4.75
2017-12-26T23:25:06.617Z,5.28
2017-12-26T23:27:39.921Z,8.18
2017-12-26T23:30:13.057Z,9.60
2017-12-26T23:32:46.604Z,5.45
2017-12-26T23:35:19.588Z,8.73
2017-12-26T23:37:52.905Z,3.97
2017-12-26T23:40:26.001Z,4.43
2017-12-26T23:42:59.165Z,4.75
2017-12-26T23:45:32.181Z,7.55
2017-12-26T23:48:06.081Z,6.20
2017-12-26T23:50:39.107Z,6.12
2017-12-26T23:53:12.257Z,7.97
2017-12-26T23:55:45.428Z,2.90
2017-12-26T23:58:18.912Z,3.60
